Time;durP1;ratioP1;P1;durP2;ratioP2;P2;SDS_P1;SDS_P2;PMS_P1;PMS_P2;Temp;Humidity;BMP_temperature;BMP_pressure;BME280_temperature;BME280_humidity;BME280_pressure;Samples;Min_cycle;Max_cycle;Signal;HPM_P1;HPM_P2
2022/11/17 00:01:56;;;;;;;;;;;;;;;19.65;44.81;94072.47;10500328;28;1899;-52
2022/11/17 00:07:06;;;;;;;;;;;;;;;19.65;44.70;94064.59;10499542;28;2004;-48
2022/11/17 00:17:25;;;;;;;;;;;;;;;19.63;44.57;94079.88;10497831;28;2031;-51
2022/11/17 00:22:25;;;;;;;;;;;;;;;19.60;44.51;94077.88;10497617;28;2154;-49
2022/11/17 00:27:26;;;;;;;;;;;;;;;19.58;44.67;94074.78;10508168;28;1958;-49
2022/11/17 00:43:03;;;;;;;;;;;;;;;19.49;44.49;94057.13;10505271;28;1840;-50
2022/11/17 00:48:04;;;;;;;;;;;;;;;19.53;44.37;94053.91;10498251;28;1936;-50
2022/11/17 00:53:04;;;;;;;;;;;;;;;19.46;44.60;94062.25;10507420;28;2058;-52
2022/11/17 00:58:04;;;;;;;;;;;;;;;19.52;44.28;94060.22;10496237;28;2021;-50
2022/11/17 01:03:04;;;;;;;;;;;;;;;19.51;44.27;94056.06;10503884;28;2176;-51
2022/11/17 01:08:05;;;;;;;;;;;;;;;19.45;44.36;94061.44;10510416;28;1963;-50
2022/11/17 01:13:05;;;;;;;;;;;;;;;19.45;44.11;94056.19;10498439;28;1955;-50
2022/11/17 01:18:05;;;;;;;;;;;;;;;19.44;44.16;94044.16;10507742;28;1973;-52
2022/11/17 01:23:05;;;;;;;;;;;;;;;19.46;44.15;94046.47;10509015;28;1983;-51
2022/11/17 01:28:06;;;;;;;;;;;;;;;19.41;44.08;94049.25;10510607;28;1963;-48
2022/11/17 01:33:07;;;;;;;;;;;;;;;19.40;44.13;94051.09;10505383;28;1928;-50
2022/11/17 01:38:07;;;;;;;;;;;;;;;19.45;43.91;94052.81;10517719;28;2003;-49
2022/11/17 01:43:09;;;;;;;;;;;;;;;19.38;43.94;94050.63;10509781;28;2062;-49
2022/11/17 01:48:09;;;;;;;;;;;;;;;19.36;44.04;94052.78;10512760;28;1968;-52
2022/11/17 01:53:10;;;;;;;;;;;;;;;19.35;44.00;94051.22;10511181;28;1975;-49
2022/11/17 01:58:39;;;;;;;;;;;;;;;19.35;43.85;94056.50;10503398;28;2002;-48
2022/11/17 02:03:39;;;;;;;;;;;;;;;19.35;43.79;94040.72;10507508;28;2032;-47
2022/11/17 02:08:40;;;;;;;;;;;;;;;19.34;43.86;94027.91;10504659;28;2068;-49
2022/11/17 02:13:40;;;;;;;;;;;;;;;19.31;43.84;94017.97;10506958;28;1924;-49
2022/11/17 02:18:40;;;;;;;;;;;;;;;19.34;43.64;94023.44;10505284;28;1985;-51
2022/11/17 02:23:50;;;;;;;;;;;;;;;19.29;43.78;93999.88;10506890;28;1900;-52
2022/11/17 02:28:53;;;;;;;;;;;;;;;19.29;43.85;93989.38;10511140;28;1959;-51
2022/11/17 02:33:54;;;;;;;;;;;;;;;19.30;43.81;93990.94;10501328;28;2015;-52
2022/11/17 02:39:15;;;;;;;;;;;;;;;19.25;43.83;93993.69;10506726;28;1975;-51
2022/11/17 02:44:17;;;;;;;;;;;;;;;19.24;43.69;93986.91;10495158;28;1920;-52
2022/11/17 02:49:19;;;;;;;;;;;;;;;19.22;43.99;93981.19;10504551;28;2014;-52
2022/11/17 02:54:20;;;;;;;;;;;;;;;19.23;43.52;93972.22;10494614;28;2031;-50
2022/11/17 02:59:22;;;;;;;;;;;;;;;19.21;43.87;93956.00;10504437;28;2011;-50
2022/11/17 03:04:41;;;;;;;;;;;;;;;19.21;43.54;93945.50;10502490;28;2089;-48
2022/11/17 03:09:50;;;;;;;;;;;;;;;19.21;43.68;93934.97;10502872;28;1907;-52
2022/11/17 03:14:51;;;;;;;;;;;;;;;19.19;43.49;93924.00;10495855;28;2003;-52
2022/11/17 03:19:54;;;;;;;;;;;;;;;19.19;43.74;93925.84;10504482;28;1935;-48
2022/11/17 03:24:56;;;;;;;;;;;;;;;19.18;43.53;93911.97;10506379;28;1940;-48
2022/11/17 03:29:58;;;;;;;;;;;;;;;19.16;43.65;93915.97;10512004;28;2047;-52
2022/11/17 03:35:00;;;;;;;;;;;;;;;19.13;43.61;93911.34;10508740;28;1932;-49
2022/11/17 03:40:02;;;;;;;;;;;;;;;19.12;43.50;93910.59;10502334;28;1977;-49
2022/11/17 03:45:05;;;;;;;;;;;;;;;19.12;43.50;93907.97;10506318;28;2012;-52
2022/11/17 03:50:16;;;;;;;;;;;;;;;19.12;43.62;93905.31;10502688;28;2088;-49
2022/11/17 03:55:17;;;;;;;;;;;;;;;19.13;43.18;93895.56;10497583;28;1974;-49
2022/11/17 04:00:17;;;;;;;;;;;;;;;19.10;43.37;93889.06;10496947;28;1911;-52
2022/11/17 04:05:18;;;;;;;;;;;;;;;19.08;43.41;93872.84;10508111;28;1988;-50
2022/11/17 04:10:19;;;;;;;;;;;;;;;19.09;43.33;93863.91;10502763;28;2169;-50
2022/11/17 04:20:52;;;;;;;;;;;;;;;19.08;43.49;93854.47;10500598;28;2026;-50
2022/11/17 04:31:14;;;;;;;;;;;;;;;19.04;43.36;93858.81;10502612;28;1996;-50
2022/11/17 04:36:15;;;;;;;;;;;;;;;19.04;43.42;93861.44;10497455;28;1983;-50
2022/11/17 04:46:34;;;;;;;;;;;;;;;19.00;43.32;93847.38;10497797;28;1966;-46
2022/11/17 04:51:35;;;;;;;;;;;;;;;19.01;43.31;93838.44;10510875;28;1892;-49
2022/11/17 04:56:35;;;;;;;;;;;;;;;18.99;43.40;93845.06;10507897;28;1994;-51
2022/11/17 05:01:36;;;;;;;;;;;;;;;19.02;43.17;93839.97;10542151;27;1956;-50
2022/11/17 05:06:40;;;;;;;;;;;;;;;19.09;43.26;93827.16;10517156;28;1912;-51
2022/11/17 05:17:05;;;;;;;;;;;;;;;19.29;43.04;93836.25;10514329;28;2106;-48
2022/11/17 05:27:25;;;;;;;;;;;;;;;19.41;43.06;93873.97;10505877;28;2002;-50
2022/11/17 05:32:25;;;;;;;;;;;;;;;19.43;42.62;93863.91;10505504;28;2018;-48
2022/11/17 05:37:25;;;;;;;;;;;;;;;19.45;42.71;93888.03;10512961;28;1914;-48
2022/11/17 05:42:26;;;;;;;;;;;;;;;19.46;42.10;93912.47;10507847;28;2153;-49
2022/11/17 05:47:26;;;;;;;;;;;;;;;19.51;41.85;93941.22;10501182;28;2035;-47
2022/11/17 05:52:26;;;;;;;;;;;;;;;19.54;41.94;93931.94;10509951;28;2133;-50
2022/11/17 05:57:27;;;;;;;;;;;;;;;19.57;41.45;93908.44;10504535;28;2103;-52
2022/11/17 06:02:29;;;;;;;;;;;;;;;19.60;41.77;93936.72;10508349;28;2125;-52
2022/11/17 06:07:32;;;;;;;;;;;;;;;19.65;41.68;93948.94;10508735;28;1943;-47
2022/11/17 06:12:41;;;;;;;;;;;;;;;19.66;41.12;93950.50;10515091;28;2130;-50
2022/11/17 06:17:50;;;;;;;;;;;;;;;19.68;41.05;93930.69;10507771;28;1911;-46
2022/11/17 06:22:53;;;;;;;;;;;;;;;19.75;40.81;93935.47;10510693;28;1911;-50
2022/11/17 06:27:53;;;;;;;;;;;;;;;19.78;40.79;93934.84;10509613;28;1975;-51
2022/11/17 06:32:55;;;;;;;;;;;;;;;19.81;40.98;93910.56;10509815;28;1963;-49
2022/11/17 06:37:55;;;;;;;;;;;;;;;19.86;41.28;93884.13;10508515;28;1942;-47
2022/11/17 06:43:11;;;;;;;;;;;;;;;19.91;40.91;93873.41;10507587;28;1912;-49
2022/11/17 06:48:12;;;;;;;;;;;;;;;19.94;41.59;93872.81;10514308;28;1836;-49
2022/11/17 06:53:12;;;;;;;;;;;;;;;19.93;40.70;93887.81;10505749;28;2051;-50
2022/11/17 06:58:13;;;;;;;;;;;;;;;19.94;40.76;93884.09;10509028;28;1969;-49
2022/11/17 07:03:16;;;;;;;;;;;;;;;19.96;40.40;93908.22;10508301;28;1964;-50
2022/11/17 07:08:21;;;;;;;;;;;;;;;19.97;41.16;93932.66;10508690;28;1927;-49
2022/11/17 07:13:22;;;;;;;;;;;;;;;20.01;41.57;93925.69;10505249;28;1983;-46
2022/11/17 07:18:23;;;;;;;;;;;;;;;20.03;41.39;93920.91;10509472;28;1999;-50
2022/11/17 07:23:24;;;;;;;;;;;;;;;20.02;40.02;93937.75;10509100;28;2066;-47
2022/11/17 07:28:24;;;;;;;;;;;;;;;20.00;40.50;93935.44;10498929;28;1892;-51
2022/11/17 07:33:25;;;;;;;;;;;;;;;20.01;39.87;93936.97;10499801;28;1992;-52
2022/11/17 07:38:26;;;;;;;;;;;;;;;20.13;41.28;93941.59;10509534;28;1967;-51
2022/11/17 07:43:26;;;;;;;;;;;;;;;20.21;41.36;93952.13;10500237;28;1999;-49
2022/11/17 07:48:26;;;;;;;;;;;;;;;20.19;41.11;93956.94;10498638;28;1950;-51
2022/11/17 07:53:27;;;;;;;;;;;;;;;20.20;40.90;93944.53;10507065;28;1925;-50
2022/11/17 07:58:28;;;;;;;;;;;;;;;20.23;41.33;93943.91;10506084;28;1963;-47
2022/11/17 08:03:28;;;;;;;;;;;;;;;20.24;41.67;93958.59;10506590;28;1959;-48
2022/11/17 08:08:29;;;;;;;;;;;;;;;20.27;41.93;93955.38;10494826;28;1987;-50
2022/11/17 08:13:29;;;;;;;;;;;;;;;20.31;42.05;93966.81;10497773;28;2240;-52
2022/11/17 08:18:29;;;;;;;;;;;;;;;20.32;42.14;93984.13;10495779;28;2069;-53
2022/11/17 08:23:30;;;;;;;;;;;;;;;20.30;42.38;93988.91;10497634;28;2240;-51
2022/11/17 08:28:30;;;;;;;;;;;;;;;20.31;42.23;93998.38;10510529;28;2027;-49
2022/11/17 08:33:30;;;;;;;;;;;;;;;20.27;42.23;94013.25;10499178;28;2039;-48
2022/11/17 08:38:31;;;;;;;;;;;;;;;20.27;42.45;94039.56;10506853;28;2030;-52
2022/11/17 08:43:31;;;;;;;;;;;;;;;20.24;42.40;93982.28;10515559;28;2066;-48
2022/11/17 08:48:31;;;;;;;;;;;;;;;20.21;42.27;93978.44;10507151;28;1995;-48
2022/11/17 08:53:32;;;;;;;;;;;;;;;20.17;42.55;93971.44;10517328;28;2121;-50
2022/11/17 08:58:36;;;;;;;;;;;;;;;20.18;42.46;93951.94;10514264;28;2112;-48
2022/11/17 09:03:37;;;;;;;;;;;;;;;20.18;42.29;93944.81;10513131;28;2012;-48
2022/11/17 09:08:37;;;;;;;;;;;;;;;20.13;42.52;93939.72;10510144;28;2045;-48
2022/11/17 09:13:37;;;;;;;;;;;;;;;20.10;42.50;93931.69;10508285;28;2030;-51
2022/11/17 09:18:38;;;;;;;;;;;;;;;20.12;42.25;93934.78;10505051;28;2046;-49
2022/11/17 09:23:38;;;;;;;;;;;;;;;20.11;42.39;93938.50;10506251;28;2014;-48
2022/11/17 09:28:38;;;;;;;;;;;;;;;20.10;42.18;93942.22;10503682;28;2040;-49
2022/11/17 09:33:39;;;;;;;;;;;;;;;20.10;42.19;93942.22;10519064;28;1942;-47
2022/11/17 09:38:39;;;;;;;;;;;;;;;20.10;42.42;93950.09;10506857;28;2046;-50
2022/11/17 09:43:39;;;;;;;;;;;;;;;20.10;42.43;93939.59;10514323;28;1992;-47
2022/11/17 09:48:41;;;;;;;;;;;;;;;20.08;42.54;93936.50;10505773;28;2109;-51
2022/11/17 09:53:43;;;;;;;;;;;;;;;20.05;42.51;93942.41;10506261;28;1955;-50
2022/11/17 09:58:48;;;;;;;;;;;;;;;20.06;42.66;93949.19;10510024;28;2035;-48
2022/11/17 10:03:49;;;;;;;;;;;;;;;20.03;42.55;93937.44;10505332;28;2066;-49
2022/11/17 10:08:49;;;;;;;;;;;;;;;20.02;42.85;93946.41;10507083;28;2026;-49
2022/11/17 10:13:49;;;;;;;;;;;;;;;19.97;42.84;93941.31;10505930;28;2039;-49
2022/11/17 10:18:50;;;;;;;;;;;;;;;19.98;43.07;93948.13;10501959;28;2225;-51
2022/11/17 10:23:57;;;;;;;;;;;;;;;19.97;42.92;93948.44;10508566;28;2002;-53
2022/11/17 10:29:04;;;;;;;;;;;;;;;19.92;43.17;93956.50;10488491;28;2126;-52
2022/11/17 10:34:07;;;;;;;;;;;;;;;19.91;43.28;93939.16;10501033;28;2143;-51
2022/11/17 10:39:07;;;;;;;;;;;;;;;19.81;43.40;93937.63;10500746;28;1979;-51
2022/11/17 10:44:10;;;;;;;;;;;;;;;19.78;43.50;93953.25;10508631;28;2022;-49
2022/11/17 10:49:21;;;;;;;;;;;;;;;19.73;43.60;93953.41;10509727;28;2018;-51
2022/11/17 10:54:22;;;;;;;;;;;;;;;19.70;43.63;93938.28;10504628;28;2027;-51
2022/11/17 10:59:32;;;;;;;;;;;;;;;19.70;43.64;93938.28;10505587;28;2087;-51
2022/11/17 11:04:33;;;;;;;;;;;;;;;19.66;43.72;93935.47;10510814;28;2038;-53
2022/11/17 11:09:34;;;;;;;;;;;;;;;19.67;44.00;93939.66;10509182;28;2002;-49
2022/11/17 11:14:42;;;;;;;;;;;;;;;19.64;43.93;93942.91;10498639;28;1995;-50
2022/11/17 11:19:50;;;;;;;;;;;;;;;19.61;43.90;93930.38;10497060;28;2059;-53
2022/11/17 11:24:56;;;;;;;;;;;;;;;19.58;44.07;93940.75;10504333;28;2054;-52
2022/11/17 11:30:17;;;;;;;;;;;;;;;19.60;43.91;93944.59;10494551;28;2051;-53
2022/11/17 11:35:36;;;;;;;;;;;;;;;19.57;43.97;93952.34;10497986;28;1952;-51
2022/11/17 11:40:40;;;;;;;;;;;;;;;19.54;43.92;93953.72;10504395;28;2031;-51
2022/11/17 11:45:49;;;;;;;;;;;;;;;19.53;44.36;93973.22;10501053;28;2007;-49
2022/11/17 11:50:49;;;;;;;;;;;;;;;19.53;44.12;93964.56;10501585;28;2067;-50
2022/11/17 11:55:59;;;;;;;;;;;;;;;19.52;44.22;93963.78;10509777;28;2070;-48
2022/11/17 12:01:03;;;;;;;;;;;;;;;19.56;44.02;93948.19;10500025;28;1994;-52
2022/11/17 12:06:39;;;;;;;;;;;;;;;19.58;44.42;93932.88;10497463;28;2124;-53
2022/11/17 12:16:46;;;;;;;;;;;;;;;19.59;46.85;93945.69;10507063;28;2042;-52
2022/11/17 12:21:51;;;;;;;;;;;;;;;19.63;47.64;93949.25;10496165;28;2166;-52
2022/11/17 12:26:52;;;;;;;;;;;;;;;19.65;48.22;93951.56;10489345;28;2086;-52
2022/11/17 12:31:56;;;;;;;;;;;;;;;19.66;48.59;93959.13;10486177;28;2157;-52
2022/11/17 12:37:14;;;;;;;;;;;;;;;19.71;50.10;93958.97;10504221;28;2038;-50
2022/11/17 12:42:15;;;;;;;;;;;;;;;19.76;50.74;93960.69;10499511;28;2141;-54
2022/11/17 12:47:16;;;;;;;;;;;;;;;19.82;50.81;93938.41;10501587;28;2137;-52
2022/11/17 12:52:19;;;;;;;;;;;;;;;19.82;50.40;93941.81;10507912;28;2032;-51
2022/11/17 12:57:21;;;;;;;;;;;;;;;19.77;50.07;93944.59;10495077;28;2129;-51
2022/11/17 13:02:45;;;;;;;;;;;;;;;19.87;49.75;93951.38;10500824;28;2347;-51
2022/11/17 13:07:45;;;;;;;;;;;;;;;19.91;49.46;93947.03;10495260;28;2035;-53
2022/11/17 13:12:46;;;;;;;;;;;;;;;19.81;49.29;93935.00;10499339;28;2073;-50
2022/11/17 13:17:46;;;;;;;;;;;;;;;19.76;49.10;93939.66;10518616;28;2010;-54
2022/11/17 13:23:05;;;;;;;;;;;;;;;19.68;48.83;93937.81;10506846;28;2034;-53
2022/11/17 13:28:21;;;;;;;;;;;;;;;19.62;48.78;93944.31;10517661;28;2037;-52
2022/11/17 13:33:22;;;;;;;;;;;;;;;19.62;48.27;93949.56;10504534;28;2054;-46
2022/11/17 13:38:22;;;;;;;;;;;;;;;19.62;48.06;93939.06;10511534;28;2285;-50
2022/11/17 13:43:24;;;;;;;;;;;;;;;19.58;47.85;93943.38;10501728;28;2107;-49
2022/11/17 13:48:28;;;;;;;;;;;;;;;19.65;47.73;93941.81;10515751;28;2068;-48
2022/11/17 13:53:31;;;;;;;;;;;;;;;19.62;47.56;93944.31;10501253;28;2093;-45
2022/11/17 13:58:31;;;;;;;;;;;;;;;19.61;47.35;93954.03;10503308;28;2035;-47
2022/11/17 14:03:35;;;;;;;;;;;;;;;19.58;47.46;93946.00;10508522;28;2149;-49
2022/11/17 14:08:36;;;;;;;;;;;;;;;19.56;47.39;93967.31;10504724;28;2079;-45
2022/11/17 14:14:00;;;;;;;;;;;;;;;19.58;47.10;93961.78;10516157;28;2090;-48
2022/11/17 14:19:01;;;;;;;;;;;;;;;19.51;47.38;93969.34;10506348;28;2034;-51
2022/11/17 14:24:19;;;;;;;;;;;;;;;19.52;47.07;93968.25;10501829;28;1996;-47
2022/11/17 14:29:20;;;;;;;;;;;;;;;19.44;47.41;93965.31;10506957;28;1977;-47
2022/11/17 14:34:20;;;;;;;;;;;;;;;19.47;47.24;93961.31;10499063;28;2048;-52
2022/11/17 14:39:21;;;;;;;;;;;;;;;19.55;47.05;93965.00;10513025;28;2184;-51
2022/11/17 14:44:22;;;;;;;;;;;;;;;19.65;46.87;93959.44;10505042;28;2053;-54
2022/11/17 14:49:22;;;;;;;;;;;;;;;19.79;46.43;93963.47;10505484;28;2058;-52
2022/11/17 14:54:22;;;;;;;;;;;;;;;19.88;46.71;93966.09;10512425;28;2038;-50
2022/11/17 14:59:22;;;;;;;;;;;;;;;19.99;46.37;93965.44;10499299;28;2134;-46
2022/11/17 15:04:23;;;;;;;;;;;;;;;20.08;46.54;93962.78;10507151;28;1972;-48
2022/11/17 15:09:23;;;;;;;;;;;;;;;20.12;46.44;93953.97;10506526;28;2002;-49
2022/11/17 15:14:24;;;;;;;;;;;;;;;20.17;46.35;93955.66;10503109;28;2355;-49
2022/11/17 15:19:24;;;;;;;;;;;;;;;20.25;46.14;93947.00;10503135;28;2036;-46
2022/11/17 15:24:24;;;;;;;;;;;;;;;20.30;45.80;93944.19;10497785;28;2097;-51
2022/11/17 15:29:25;;;;;;;;;;;;;;;20.35;45.61;93944.03;10511920;28;2049;-54
2022/11/17 15:34:25;;;;;;;;;;;;;;;20.37;45.37;93936.59;10495935;28;2047;-53
2022/11/17 15:39:25;;;;;;;;;;;;;;;20.39;45.16;93938.91;10493023;28;2038;-53
2022/11/17 15:44:26;;;;;;;;;;;;;;;20.38;45.19;93940.75;10491727;28;2098;-46
2022/11/17 15:49:26;;;;;;;;;;;;;;;20.31;43.94;93924.69;10493853;28;2046;-47
2022/11/17 15:54:26;;;;;;;;;;;;;;;20.27;43.44;93931.69;10495271;28;2347;-48
2022/11/17 15:59:26;;;;;;;;;;;;;;;20.28;43.24;93946.38;10501757;28;2196;-51
2022/11/17 16:04:27;;;;;;;;;;;;;;;20.28;42.61;93947.16;10494933;28;2062;-52
2022/11/17 16:09:27;;;;;;;;;;;;;;;20.31;42.29;93951.00;10510517;28;1979;-51
2022/11/17 16:14:28;;;;;;;;;;;;;;;20.34;43.53;93950.38;10504997;28;2237;-51
2022/11/17 16:19:28;;;;;;;;;;;;;;;20.41;42.95;93940.16;10492935;28;2166;-49
2022/11/17 16:24:28;;;;;;;;;;;;;;;20.40;42.85;93938.63;10496177;28;2063;-48
2022/11/17 16:29:28;;;;;;;;;;;;;;;20.41;41.85;93934.88;10497583;28;2035;-48
2022/11/17 16:34:29;;;;;;;;;;;;;;;20.60;43.77;93924.75;10494238;28;2253;-60
2022/11/17 16:39:29;;;;;;;;;;;;;;;20.62;43.26;93919.94;10510282;28;2023;-55
2022/11/17 16:44:29;;;;;;;;;;;;;;;20.63;42.90;93916.19;10497773;28;1995;-56
2022/11/17 16:49:31;;;;;;;;;;;;;;;20.62;42.53;93908.63;10507719;28;2038;-53
2022/11/17 16:54:31;;;;;;;;;;;;;;;20.65;42.53;93905.38;10507132;28;2339;-49
2022/11/17 16:59:32;;;;;;;;;;;;;;;20.60;42.14;93902.91;10504322;28;2143;-49
2022/11/17 17:04:32;;;;;;;;;;;;;;;20.62;42.19;93916.53;10505119;28;1990;-51
2022/11/17 17:09:33;;;;;;;;;;;;;;;20.70;42.78;93918.34;10514897;28;2072;-47
2022/11/17 17:14:33;;;;;;;;;;;;;;;20.78;43.42;93922.78;10509687;28;2036;-49
2022/11/17 17:19:33;;;;;;;;;;;;;;;20.79;43.34;93919.06;10508253;28;2467;-48
2022/11/17 17:24:34;;;;;;;;;;;;;;;20.80;43.15;93910.84;10515343;28;1994;-51
2022/11/17 17:29:35;;;;;;;;;;;;;;;20.78;42.97;93913.03;10519767;28;2079;-50
2022/11/17 17:34:35;;;;;;;;;;;;;;;20.79;43.46;93903.28;10511382;28;2507;-52
2022/11/17 17:39:36;;;;;;;;;;;;;;;20.78;43.40;93909.63;10511269;28;2096;-49
2022/11/17 17:44:36;;;;;;;;;;;;;;;20.80;43.62;93915.34;10504552;28;2191;-48
2022/11/17 17:49:37;;;;;;;;;;;;;;;20.80;43.51;93916.13;10505903;28;2075;-48
2022/11/17 17:54:37;;;;;;;;;;;;;;;20.81;43.11;93906.38;10512529;28;2038;-48
2022/11/17 17:59:38;;;;;;;;;;;;;;;20.81;43.04;93904.47;10514845;28;2227;-50
2022/11/17 18:04:38;;;;;;;;;;;;;;;20.77;43.41;93900.94;10513649;28;2015;-53
2022/11/17 18:09:44;;;;;;;;;;;;;;;20.79;43.00;93921.72;10507637;28;2065;-51
2022/11/17 18:14:44;;;;;;;;;;;;;;;20.82;43.23;93913.16;10516653;28;1980;-48
2022/11/17 18:19:44;;;;;;;;;;;;;;;20.82;43.47;93902.63;10505738;28;2092;-48
2022/11/17 18:24:45;;;;;;;;;;;;;;;20.85;43.35;93913.31;10515508;28;2062;-49
2022/11/17 18:29:46;;;;;;;;;;;;;;;20.85;42.94;93923.06;10510646;28;2080;-48
2022/11/17 18:34:47;;;;;;;;;;;;;;;20.88;43.28;93917.94;10513635;28;2065;-48
2022/11/17 18:39:47;;;;;;;;;;;;;;;20.87;43.25;93915.63;10504049;28;2114;-48
2022/11/17 18:44:49;;;;;;;;;;;;;;;20.87;43.24;93916.41;10500683;28;2002;-48
2022/11/17 18:49:49;;;;;;;;;;;;;;;20.87;43.42;93919.03;10509644;28;2088;-49
2022/11/17 18:54:50;;;;;;;;;;;;;;;20.86;43.61;93914.84;10495579;28;2145;-49
2022/11/17 18:59:50;;;;;;;;;;;;;;;20.86;43.47;93914.06;10509032;28;1998;-49
2022/11/17 19:04:50;;;;;;;;;;;;;;;20.84;43.51;93917.03;10501045;28;2042;-49
2022/11/17 19:09:50;;;;;;;;;;;;;;;20.85;43.56;93913.31;10499848;28;2045;-49
2022/11/17 19:14:53;;;;;;;;;;;;;;;20.85;43.40;93894.88;10503651;28;2101;-45
2022/11/17 19:19:53;;;;;;;;;;;;;;;20.88;43.34;93910.03;10505987;28;2110;-49
2022/11/17 19:24:53;;;;;;;;;;;;;;;20.85;43.24;93905.41;10512154;28;2066;-49
2022/11/17 19:29:53;;;;;;;;;;;;;;;20.86;43.28;93908.78;10506672;28;2097;-48
2022/11/17 19:34:54;;;;;;;;;;;;;;;20.82;43.33;93900.00;10510553;28;1992;-47
2022/11/17 19:39:54;;;;;;;;;;;;;;;20.84;43.08;93906.50;10506819;28;2015;-48
2022/11/17 19:44:55;;;;;;;;;;;;;;;20.85;43.14;93905.41;10505939;28;1996;-48
2022/11/17 19:49:55;;;;;;;;;;;;;;;20.85;43.00;93920.44;10497066;28;2094;-51
2022/11/17 19:54:55;;;;;;;;;;;;;;;20.85;43.01;93917.81;10506817;28;2045;-48
2022/11/17 19:59:55;;;;;;;;;;;;;;;20.78;43.06;93913.03;10504544;28;2109;-48
2022/11/17 20:04:56;;;;;;;;;;;;;;;20.82;43.09;93913.94;10499799;28;2114;-50
2022/11/17 20:09:57;;;;;;;;;;;;;;;20.81;43.26;93920.28;10502480;28;2165;-46
2022/11/17 20:14:58;;;;;;;;;;;;;;;20.79;43.24;93930.34;10508921;28;2049;-48
2022/11/17 20:19:58;;;;;;;;;;;;;;;20.76;43.25;93931.00;10509873;28;2010;-47
2022/11/17 20:25:06;;;;;;;;;;;;;;;20.77;43.28;93924.63;10512372;28;2039;-46
2022/11/17 20:30:07;;;;;;;;;;;;;;;20.78;43.11;93931.47;10505970;28;2097;-48
2022/11/17 20:35:07;;;;;;;;;;;;;;;20.75;43.27;93923.44;10504247;28;2046;-48
2022/11/17 20:40:08;;;;;;;;;;;;;;;20.72;43.07;93927.47;10513184;28;2000;-50
2022/11/17 20:45:08;;;;;;;;;;;;;;;20.69;43.21;93920.19;10492375;28;2046;-50
2022/11/17 20:50:08;;;;;;;;;;;;;;;20.65;43.29;93927.19;10505635;28;2076;-50
2022/11/17 20:55:09;;;;;;;;;;;;;;;20.62;43.44;93930.47;10506174;28;2161;-47
2022/11/17 21:00:09;;;;;;;;;;;;;;;20.60;43.54;93931.88;10506523;28;2003;-49
2022/11/17 21:05:09;;;;;;;;;;;;;;;20.63;43.26;93939.13;10499291;28;2011;-50
2022/11/17 21:10:10;;;;;;;;;;;;;;;20.55;43.32;93935.44;10507890;28;2085;-48
2022/11/17 21:15:11;;;;;;;;;;;;;;;20.50;43.36;93935.63;10495544;28;2116;-45
2022/11/17 21:20:11;;;;;;;;;;;;;;;20.50;43.48;93948.78;10512901;28;2026;-47
2022/11/17 21:25:12;;;;;;;;;;;;;;;20.47;43.26;93949.41;10511315;28;2034;-46
2022/11/17 21:30:13;;;;;;;;;;;;;;;20.51;43.20;93950.31;10505710;28;2060;-52
2022/11/17 21:35:13;;;;;;;;;;;;;;;20.48;43.17;93939.66;10507348;28;2013;-49
2022/11/17 21:40:14;;;;;;;;;;;;;;;20.48;42.95;93944.91;10515400;28;2036;-50
2022/11/17 21:45:15;;;;;;;;;;;;;;;20.50;43.22;93958.53;10520165;28;2183;-48
2022/11/17 21:50:16;;;;;;;;;;;;;;;20.49;43.04;93965.66;10522622;28;2075;-49
2022/11/17 21:55:16;;;;;;;;;;;;;;;20.51;42.87;93976.63;10504966;28;2022;-48
2022/11/17 22:00:16;;;;;;;;;;;;;;;20.46;43.02;93982.09;10516486;28;2039;-50
2022/11/17 22:05:16;;;;;;;;;;;;;;;20.43;43.01;93982.72;10524559;28;2046;-49
2022/11/17 22:10:17;;;;;;;;;;;;;;;20.38;43.20;93988.13;10513649;28;2086;-49
2022/11/17 22:15:17;;;;;;;;;;;;;;;20.36;43.08;94000.06;10522024;28;1991;-50
2022/11/17 22:20:18;;;;;;;;;;;;;;;20.31;43.27;94008.91;10524407;28;2018;-48
2022/11/17 22:25:21;;;;;;;;;;;;;;;20.27;43.73;94031.66;10515785;28;2067;-49
2022/11/17 22:30:21;;;;;;;;;;;;;;;20.23;43.58;94033.38;10522343;28;2158;-46
2022/11/17 22:35:21;;;;;;;;;;;;;;;20.18;43.68;94031.63;10524070;28;2031;-48
2022/11/17 22:40:21;;;;;;;;;;;;;;;20.23;43.36;94023.63;10520569;28;1979;-49
2022/11/17 22:45:22;;;;;;;;;;;;;;;20.21;43.24;94030.28;10514157;28;1966;-50
2022/11/17 22:50:22;;;;;;;;;;;;;;;20.18;43.52;94036.91;10510494;28;2039;-49
2022/11/17 22:55:25;;;;;;;;;;;;;;;20.16;43.53;94046.19;10519622;28;1975;-47
2022/11/17 23:00:25;;;;;;;;;;;;;;;20.10;43.37;94042.94;10523633;28;2062;-49
2022/11/17 23:05:25;;;;;;;;;;;;;;;20.04;43.54;94036.31;10520950;28;2062;-49
2022/11/17 23:10:26;;;;;;;;;;;;;;;20.01;43.64;94036.16;10514947;28;2210;-53
2022/11/17 23:15:27;;;;;;;;;;;;;;;20.01;43.58;94041.41;10512962;28;2031;-51
2022/11/17 23:20:27;;;;;;;;;;;;;;;19.98;43.44;94039.41;10508091;28;2033;-48
2022/11/17 23:25:28;;;;;;;;;;;;;;;19.98;43.52;94039.41;10510520;28;2042;-49
2022/11/17 23:30:34;;;;;;;;;;;;;;;19.95;43.49;94027.63;10507771;28;2366;-51
2022/11/17 23:35:35;;;;;;;;;;;;;;;19.91;43.43;94018.03;10500237;28;2133;-50
2022/11/17 23:40:35;;;;;;;;;;;;;;;19.89;43.49;94033.34;10519982;28;2046;-48
2022/11/17 23:45:35;;;;;;;;;;;;;;;19.86;43.66;94019.00;10504677;28;2054;-47
2022/11/17 23:50:36;;;;;;;;;;;;;;;19.83;43.56;94011.72;10505797;28;2364;-47
2022/11/17 23:55:36;;;;;;;;;;;;;;;19.84;43.67;94012.50;10515270;28;2029;-50
